Laughlintown, Pennsylvania
Current Conditions -  °F | °C
As of 5:45 PM on Wednesday 26 Nov 2014 (Local Time) from KLBE Reporting Station
Light Rain Light Rain  
Wind Chill: 32°   Ceiling: 400
Heat Index: 32°   Visibility: 4mi
Dew Point: 32°   Wind: 0mph
Humidity: 100%   Direction: NA
Pressure: 30.02"   Gusts: NA
Location:  40.21°N, 79.2°W
Report Text: KLBE 262245Z 00000KT 4SM -RA OVC004 00/00 A3002
Loading
Personal Weather Stations






























Interactive Weather Map New forecast layout! Learn more

10-Day Weather Forecast

Advertisements
Track Severe Weather on mobile